sensor_id;sensor_type;location;lat;lon;timestamp;pressure;altitude;pressure_sealevel;temperature
68510;BMP180;55512;50.102;19.958;2023-02-24T00:00:11;98059.80;;;5.30
68510;BMP180;55512;50.102;19.958;2023-02-24T00:02:59;98057.00;;;5.30
68510;BMP180;55512;50.102;19.958;2023-02-24T00:05:33;98052.40;;;5.30
68510;BMP180;55512;50.102;19.958;2023-02-24T00:07:58;98050.00;;;5.38
68510;BMP180;55512;50.102;19.958;2023-02-24T00:10:23;98045.20;;;5.40
68510;BMP180;55512;50.102;19.958;2023-02-24T00:12:49;98042.40;;;5.40
68510;BMP180;55512;50.102;19.958;2023-02-24T00:15:15;98043.80;;;5.40
68510;BMP180;55512;50.102;19.958;2023-02-24T00:17:41;98039.60;;;5.40
68510;BMP180;55512;50.102;19.958;2023-02-24T00:20:11;98039.60;;;5.40
68510;BMP180;55512;50.102;19.958;2023-02-24T00:22:40;98038.40;;;5.40
68510;BMP180;55512;50.102;19.958;2023-02-24T00:25:07;98038.80;;;5.48
68510;BMP180;55512;50.102;19.958;2023-02-24T00:27:33;98038.00;;;5.50
68510;BMP180;55512;50.102;19.958;2023-02-24T00:29:59;98037.20;;;5.50
68510;BMP180;55512;50.102;19.958;2023-02-24T00:32:26;98033.60;;;5.50
68510;BMP180;55512;50.102;19.958;2023-02-24T00:34:52;98030.20;;;5.50
68510;BMP180;55512;50.102;19.958;2023-02-24T00:37:17;98023.20;;;5.50
68510;BMP180;55512;50.102;19.958;2023-02-24T00:39:49;98021.80;;;5.50
68510;BMP180;55512;50.102;19.958;2023-02-24T00:42:14;98011.60;;;5.50
68510;BMP180;55512;50.102;19.958;2023-02-24T00:44:45;98013.20;;;5.50
68510;BMP180;55512;50.102;19.958;2023-02-24T00:47:12;98012.80;;;5.50
68510;BMP180;55512;50.102;19.958;2023-02-24T00:49:39;98007.60;;;5.50
68510;BMP180;55512;50.102;19.958;2023-02-24T00:52:08;98005.00;;;5.50
68510;BMP180;55512;50.102;19.958;2023-02-24T00:54:39;98003.00;;;5.52
68510;BMP180;55512;50.102;19.958;2023-02-24T00:57:04;98003.60;;;5.54
68510;BMP180;55512;50.102;19.958;2023-02-24T00:59:33;97997.00;;;5.52
68510;BMP180;55512;50.102;19.958;2023-02-24T01:01:59;97990.20;;;5.60
68510;BMP180;55512;50.102;19.958;2023-02-24T01:04:27;97989.20;;;5.58
68510;BMP180;55512;50.102;19.958;2023-02-24T01:06:54;97987.20;;;5.50
68510;BMP180;55512;50.102;19.958;2023-02-24T01:09:25;97985.20;;;5.50
68510;BMP180;55512;50.102;19.958;2023-02-24T01:11:52;97981.60;;;5.50
68510;BMP180;55512;50.102;19.958;2023-02-24T01:14:37;97981.00;;;5.50
68510;BMP180;55512;50.102;19.958;2023-02-24T01:17:06;97977.40;;;5.58
68510;BMP180;55512;50.102;19.958;2023-02-24T01:19:33;97977.20;;;5.56
68510;BMP180;55512;50.102;19.958;2023-02-24T01:22:02;97976.00;;;5.60
68510;BMP180;55512;50.102;19.958;2023-02-24T01:24:35;97969.60;;;5.58
68510;BMP180;55512;50.102;19.958;2023-02-24T01:27:03;97970.00;;;5.52
68510;BMP180;55512;50.102;19.958;2023-02-24T01:29:28;97971.60;;;5.60
68510;BMP180;55512;50.102;19.958;2023-02-24T01:31:54;97969.60;;;5.60
68510;BMP180;55512;50.102;19.958;2023-02-24T01:34:25;97971.80;;;5.60
68510;BMP180;55512;50.102;19.958;2023-02-24T01:36:50;97966.20;;;5.60
68510;BMP180;55512;50.102;19.958;2023-02-24T01:39:16;97960.00;;;5.68
68510;BMP180;55512;50.102;19.958;2023-02-24T01:41:45;97955.60;;;5.70
68510;BMP180;55512;50.102;19.958;2023-02-24T01:46:43;97946.20;;;5.70
68510;BMP180;55512;50.102;19.958;2023-02-24T01:49:28;97944.80;;;5.70
68510;BMP180;55512;50.102;19.958;2023-02-24T01:52:00;97944.80;;;5.80
68510;BMP180;55512;50.102;19.958;2023-02-24T01:54:33;97943.00;;;5.80
68510;BMP180;55512;50.102;19.958;2023-02-24T01:57:00;97942.20;;;5.80
68510;BMP180;55512;50.102;19.958;2023-02-24T01:59:30;97935.80;;;5.90
68510;BMP180;55512;50.102;19.958;2023-02-24T02:02:04;97934.20;;;5.90
68510;BMP180;55512;50.102;19.958;2023-02-24T02:04:50;97935.40;;;5.90
68510;BMP180;55512;50.102;19.958;2023-02-24T02:07:22;97933.60;;;5.92
68510;BMP180;55512;50.102;19.958;2023-02-24T02:09:50;97931.40;;;5.98
68510;BMP180;55512;50.102;19.958;2023-02-24T02:12:19;97930.80;;;6.00
68510;BMP180;55512;50.102;19.958;2023-02-24T02:14:49;97934.00;;;6.00
68510;BMP180;55512;50.102;19.958;2023-02-24T02:29:30;97921.60;;;6.10
68510;BMP180;55512;50.102;19.958;2023-02-24T02:35:09;97914.20;;;6.10
68510;BMP180;55512;50.102;19.958;2023-02-24T02:38:18;97913.20;;;6.16
68510;BMP180;55512;50.102;19.958;2023-02-24T02:49:24;97899.40;;;6.20
68510;BMP180;55512;50.102;19.958;2023-02-24T02:52:03;97897.40;;;6.20
68510;BMP180;55512;50.102;19.958;2023-02-24T02:57:23;97894.00;;;6.28
68510;BMP180;55512;50.102;19.958;2023-02-24T03:00:06;97895.40;;;6.30
68510;BMP180;55512;50.102;19.958;2023-02-24T03:02:39;97893.20;;;6.30
68510;BMP180;55512;50.102;19.958;2023-02-24T03:05:08;97886.20;;;6.30
68510;BMP180;55512;50.102;19.958;2023-02-24T03:07:41;97880.60;;;6.30
68510;BMP180;55512;50.102;19.958;2023-02-24T03:10:19;97881.40;;;6.30
68510;BMP180;55512;50.102;19.958;2023-02-24T03:12:52;97888.40;;;6.30
68510;BMP180;55512;50.102;19.958;2023-02-24T03:15:21;97885.20;;;6.30
68510;BMP180;55512;50.102;19.958;2023-02-24T03:17:56;97878.60;;;6.30
68510;BMP180;55512;50.102;19.958;2023-02-24T03:23:24;97884.40;;;6.40
68510;BMP180;55512;50.102;19.958;2023-02-24T03:25:57;97875.20;;;6.50
68510;BMP180;55512;50.102;19.958;2023-02-24T03:28:32;97876.00;;;6.50
68510;BMP180;55512;50.102;19.958;2023-02-24T03:31:25;97880.40;;;6.50
68510;BMP180;55512;50.102;19.958;2023-02-24T03:34:09;97876.20;;;6.50
68510;BMP180;55512;50.102;19.958;2023-02-24T03:36:37;97871.00;;;6.58
68510;BMP180;55512;50.102;19.958;2023-02-24T03:39:03;97870.20;;;6.60
68510;BMP180;55512;50.102;19.958;2023-02-24T03:41:38;97858.20;;;6.60
68510;BMP180;55512;50.102;19.958;2023-02-24T03:44:09;97862.40;;;6.58
68510;BMP180;55512;50.102;19.958;2023-02-24T03:46:37;97857.80;;;6.56
68510;BMP180;55512;50.102;19.958;2023-02-24T03:49:12;97856.80;;;6.60
68510;BMP180;55512;50.102;19.958;2023-02-24T03:51:39;97856.80;;;6.60
68510;BMP180;55512;50.102;19.958;2023-02-24T03:54:55;97855.20;;;6.60
68510;BMP180;55512;50.102;19.958;2023-02-24T04:06:54;97833.60;;;6.70
68510;BMP180;55512;50.102;19.958;2023-02-24T04:09:29;97835.20;;;6.80
68510;BMP180;55512;50.102;19.958;2023-02-24T04:12:12;97832.60;;;6.80
68510;BMP180;55512;50.102;19.958;2023-02-24T04:14:55;97831.60;;;6.82
68510;BMP180;55512;50.102;19.958;2023-02-24T04:17:31;97825.60;;;6.90
68510;BMP180;55512;50.102;19.958;2023-02-24T04:20:04;97823.00;;;6.90
68510;BMP180;55512;50.102;19.958;2023-02-24T04:22:44;97817.20;;;6.90
68510;BMP180;55512;50.102;19.958;2023-02-24T04:25:17;97815.20;;;7.00
68510;BMP180;55512;50.102;19.958;2023-02-24T04:27:45;97811.20;;;7.00
68510;BMP180;55512;50.102;19.958;2023-02-24T04:30:12;97810.80;;;7.00
68510;BMP180;55512;50.102;19.958;2023-02-24T04:32:39;97808.60;;;7.10
68510;BMP180;55512;50.102;19.958;2023-02-24T04:35:12;97807.60;;;7.10
68510;BMP180;55512;50.102;19.958;2023-02-24T04:37:38;97807.80;;;7.20
68510;BMP180;55512;50.102;19.958;2023-02-24T04:40:13;97810.00;;;7.20
68510;BMP180;55512;50.102;19.958;2023-02-24T04:42:42;97803.60;;;7.20
68510;BMP180;55512;50.102;19.958;2023-02-24T04:45:17;97801.00;;;7.20
68510;BMP180;55512;50.102;19.958;2023-02-24T04:47:48;97796.20;;;7.30
68510;BMP180;55512;50.102;19.958;2023-02-24T04:50:18;97788.00;;;7.30
68510;BMP180;55512;50.102;19.958;2023-02-24T04:52:55;97786.00;;;7.30
68510;BMP180;55512;50.102;19.958;2023-02-24T04:55:24;97789.00;;;7.40
68510;BMP180;55512;50.102;19.958;2023-02-24T04:57:55;97784.80;;;7.40
68510;BMP180;55512;50.102;19.958;2023-02-24T05:00:22;97780.20;;;7.40
68510;BMP180;55512;50.102;19.958;2023-02-24T05:02:54;97778.80;;;7.42
68510;BMP180;55512;50.102;19.958;2023-02-24T05:05:23;97773.40;;;7.48
68510;BMP180;55512;50.102;19.958;2023-02-24T05:07:57;97774.00;;;7.50
68510;BMP180;55512;50.102;19.958;2023-02-24T05:10:38;97770.20;;;7.50
68510;BMP180;55512;50.102;19.958;2023-02-24T05:13:05;97764.60;;;7.50
68510;BMP180;55512;50.102;19.958;2023-02-24T05:15:32;97766.60;;;7.58
68510;BMP180;55512;50.102;19.958;2023-02-24T05:17:59;97764.80;;;7.60
68510;BMP180;55512;50.102;19.958;2023-02-24T05:20:26;97764.00;;;7.58
68510;BMP180;55512;50.102;19.958;2023-02-24T05:23:10;97760.60;;;7.60
68510;BMP180;55512;50.102;19.958;2023-02-24T05:25:36;97755.60;;;7.60
68510;BMP180;55512;50.102;19.958;2023-02-24T05:28:04;97757.00;;;7.60
68510;BMP180;55512;50.102;19.958;2023-02-24T05:30:30;97753.20;;;7.60
68510;BMP180;55512;50.102;19.958;2023-02-24T05:32:56;97751.80;;;7.62
68510;BMP180;55512;50.102;19.958;2023-02-24T05:35:23;97753.80;;;7.70
68510;BMP180;55512;50.102;19.958;2023-02-24T05:37:49;97753.60;;;7.70
68510;BMP180;55512;50.102;19.958;2023-02-24T05:40:16;97749.60;;;7.70
68510;BMP180;55512;50.102;19.958;2023-02-24T05:42:45;97750.60;;;7.70
68510;BMP180;55512;50.102;19.958;2023-02-24T05:45:11;97754.00;;;7.70
68510;BMP180;55512;50.102;19.958;2023-02-24T05:47:38;97750.00;;;7.70
68510;BMP180;55512;50.102;19.958;2023-02-24T05:50:05;97748.80;;;7.70
68510;BMP180;55512;50.102;19.958;2023-02-24T05:52:34;97743.80;;;7.70
68510;BMP180;55512;50.102;19.958;2023-02-24T05:55:01;97741.60;;;7.72
68510;BMP180;55512;50.102;19.958;2023-02-24T05:57:31;97744.40;;;7.80
68510;BMP180;55512;50.102;19.958;2023-02-24T06:00:00;97740.80;;;7.76
68510;BMP180;55512;50.102;19.958;2023-02-24T06:02:35;97736.80;;;7.80
68510;BMP180;55512;50.102;19.958;2023-02-24T06:05:02;97735.40;;;7.80
68510;BMP180;55512;50.102;19.958;2023-02-24T06:07:30;97732.40;;;7.80
68510;BMP180;55512;50.102;19.958;2023-02-24T06:10:01;97724.80;;;7.80
68510;BMP180;55512;50.102;19.958;2023-02-24T06:12:31;97729.80;;;7.80
68510;BMP180;55512;50.102;19.958;2023-02-24T06:14:58;97724.40;;;7.88
68510;BMP180;55512;50.102;19.958;2023-02-24T06:17:25;97718.40;;;7.88
68510;BMP180;55512;50.102;19.958;2023-02-24T06:19:52;97720.60;;;7.90
68510;BMP180;55512;50.102;19.958;2023-02-24T06:22:21;97721.80;;;7.90
68510;BMP180;55512;50.102;19.958;2023-02-24T06:24:48;97710.40;;;7.90
68510;BMP180;55512;50.102;19.958;2023-02-24T06:27:17;97714.20;;;7.90
68510;BMP180;55512;50.102;19.958;2023-02-24T06:29:49;97712.40;;;7.90
68510;BMP180;55512;50.102;19.958;2023-02-24T06:32:21;97713.60;;;7.98
68510;BMP180;55512;50.102;19.958;2023-02-24T06:34:48;97712.80;;;8.00
68510;BMP180;55512;50.102;19.958;2023-02-24T06:37:15;97710.20;;;8.00
68510;BMP180;55512;50.102;19.958;2023-02-24T06:39:41;97702.80;;;8.00
68510;BMP180;55512;50.102;19.958;2023-02-24T06:42:09;97708.20;;;8.10
68510;BMP180;55512;50.102;19.958;2023-02-24T06:44:38;97705.80;;;8.10
68510;BMP180;55512;50.102;19.958;2023-02-24T06:47:07;97701.00;;;8.10
68510;BMP180;55512;50.102;19.958;2023-02-24T06:49:34;97700.00;;;8.10
68510;BMP180;55512;50.102;19.958;2023-02-24T06:52:01;97703.00;;;8.16
68510;BMP180;55512;50.102;19.958;2023-02-24T06:54:27;97696.80;;;8.20
68510;BMP180;55512;50.102;19.958;2023-02-24T06:56:57;97700.80;;;8.20
68510;BMP180;55512;50.102;19.958;2023-02-24T06:59:23;97698.20;;;8.20
68510;BMP180;55512;50.102;19.958;2023-02-24T07:01:54;97697.20;;;8.20
68510;BMP180;55512;50.102;19.958;2023-02-24T07:04:20;97694.40;;;8.20
68510;BMP180;55512;50.102;19.958;2023-02-24T07:06:56;97688.60;;;8.26
68510;BMP180;55512;50.102;19.958;2023-02-24T07:09:25;97690.00;;;8.30
68510;BMP180;55512;50.102;19.958;2023-02-24T07:11:53;97686.80;;;8.30
68510;BMP180;55512;50.102;19.958;2023-02-24T07:14:23;97683.40;;;8.30
68510;BMP180;55512;50.102;19.958;2023-02-24T07:16:50;97687.20;;;8.30
68510;BMP180;55512;50.102;19.958;2023-02-24T07:19:24;97681.80;;;8.30
68510;BMP180;55512;50.102;19.958;2023-02-24T07:21:54;97681.40;;;8.38
68510;BMP180;55512;50.102;19.958;2023-02-24T07:24:28;97680.40;;;8.40
68510;BMP180;55512;50.102;19.958;2023-02-24T07:27:14;97679.20;;;8.40
68510;BMP180;55512;50.102;19.958;2023-02-24T07:29:47;97674.80;;;8.40
68510;BMP180;55512;50.102;19.958;2023-02-24T07:32:14;97671.20;;;8.40
68510;BMP180;55512;50.102;19.958;2023-02-24T07:34:43;97671.20;;;8.48
68510;BMP180;55512;50.102;19.958;2023-02-24T07:37:10;97665.80;;;8.50
68510;BMP180;55512;50.102;19.958;2023-02-24T07:39:37;97668.00;;;8.50
68510;BMP180;55512;50.102;19.958;2023-02-24T07:42:05;97661.20;;;8.54
68510;BMP180;55512;50.102;19.958;2023-02-24T07:44:30;97657.80;;;8.60
68510;BMP180;55512;50.102;19.958;2023-02-24T07:46:57;97657.20;;;8.60
68510;BMP180;55512;50.102;19.958;2023-02-24T07:49:24;97649.80;;;8.60
68510;BMP180;55512;50.102;19.958;2023-02-24T07:51:54;97654.80;;;8.60
68510;BMP180;55512;50.102;19.958;2023-02-24T07:54:24;97652.80;;;8.60
68510;BMP180;55512;50.102;19.958;2023-02-24T07:56:50;97647.40;;;8.64
68510;BMP180;55512;50.102;19.958;2023-02-24T07:59:32;97648.00;;;8.70
68510;BMP180;55512;50.102;19.958;2023-02-24T08:01:59;97646.00;;;8.70
68510;BMP180;55512;50.102;19.958;2023-02-24T08:04:29;97644.20;;;8.70
68510;BMP180;55512;50.102;19.958;2023-02-24T08:06:57;97641.40;;;8.80
68510;BMP180;55512;50.102;19.958;2023-02-24T08:09:32;97639.60;;;8.80
68510;BMP180;55512;50.102;19.958;2023-02-24T08:12:07;97640.80;;;8.88
68510;BMP180;55512;50.102;19.958;2023-02-24T08:14:33;97633.40;;;8.90
68510;BMP180;55512;50.102;19.958;2023-02-24T08:17:01;97635.40;;;9.00
68510;BMP180;55512;50.102;19.958;2023-02-24T08:19:32;97633.20;;;9.00
68510;BMP180;55512;50.102;19.958;2023-02-24T08:22:00;97631.20;;;9.10
68510;BMP180;55512;50.102;19.958;2023-02-24T08:24:57;97624.20;;;9.20
68510;BMP180;55512;50.102;19.958;2023-02-24T08:27:33;97626.80;;;9.20
68510;BMP180;55512;50.102;19.958;2023-02-24T08:30:04;97620.40;;;9.26
68510;BMP180;55512;50.102;19.958;2023-02-24T08:32:39;97619.00;;;9.30
68510;BMP180;55512;50.102;19.958;2023-02-24T08:35:13;97618.20;;;9.30
68510;BMP180;55512;50.102;19.958;2023-02-24T08:37:49;97618.60;;;9.32
68510;BMP180;55512;50.102;19.958;2023-02-24T08:40:28;97614.60;;;9.40
68510;BMP180;55512;50.102;19.958;2023-02-24T08:43:09;97607.40;;;9.40
68510;BMP180;55512;50.102;19.958;2023-02-24T08:48:53;97614.20;;;9.44
68510;BMP180;55512;50.102;19.958;2023-02-24T08:51:33;97606.20;;;9.42
68510;BMP180;55512;50.102;19.958;2023-02-24T08:54:13;97605.60;;;9.44
68510;BMP180;55512;50.102;19.958;2023-02-24T08:56:47;97605.60;;;9.44
68510;BMP180;55512;50.102;19.958;2023-02-24T08:59:23;97601.60;;;9.50
68510;BMP180;55512;50.102;19.958;2023-02-24T09:02:16;97603.60;;;9.50
68510;BMP180;55512;50.102;19.958;2023-02-24T09:07:29;97599.80;;;9.60
68510;BMP180;55512;50.102;19.958;2023-02-24T09:10:02;97597.60;;;9.70
68510;BMP180;55512;50.102;19.958;2023-02-24T09:12:29;97594.40;;;9.70
68510;BMP180;55512;50.102;19.958;2023-02-24T09:15:01;97591.20;;;9.72
68510;BMP180;55512;50.102;19.958;2023-02-24T09:17:30;97595.60;;;9.80
68510;BMP180;55512;50.102;19.958;2023-02-24T09:20:20;97590.40;;;9.80
68510;BMP180;55512;50.102;19.958;2023-02-24T09:23:19;97586.40;;;9.78
68510;BMP180;55512;50.102;19.958;2023-02-24T09:25:46;97585.00;;;9.74
68510;BMP180;55512;50.102;19.958;2023-02-24T09:28:20;97588.00;;;9.70
68510;BMP180;55512;50.102;19.958;2023-02-24T09:30:58;97583.40;;;9.72
68510;BMP180;55512;50.102;19.958;2023-02-24T09:33:34;97577.60;;;9.70
68510;BMP180;55512;50.102;19.958;2023-02-24T09:36:11;97573.60;;;9.70
68510;BMP180;55512;50.102;19.958;2023-02-24T09:38:59;97574.40;;;9.70
68510;BMP180;55512;50.102;19.958;2023-02-24T09:44:15;97571.80;;;9.80
68510;BMP180;55512;50.102;19.958;2023-02-24T09:46:52;97568.20;;;9.80
68510;BMP180;55512;50.102;19.958;2023-02-24T09:49:29;97562.60;;;9.80
68510;BMP180;55512;50.102;19.958;2023-02-24T09:52:14;97562.80;;;9.82
68510;BMP180;55512;50.102;19.958;2023-02-24T09:54:44;97557.60;;;9.90
68510;BMP180;55512;50.102;19.958;2023-02-24T09:57:32;97558.00;;;9.84
68510;BMP180;55512;50.102;19.958;2023-02-24T10:00:20;97553.40;;;9.82
68510;BMP180;55512;50.102;19.958;2023-02-24T10:06:00;97555.00;;;9.80
68510;BMP180;55512;50.102;19.958;2023-02-24T10:08:46;97558.00;;;9.80
68510;BMP180;55512;50.102;19.958;2023-02-24T10:11:13;97558.00;;;9.80
68510;BMP180;55512;50.102;19.958;2023-02-24T10:13:53;97559.40;;;9.80
68510;BMP180;55512;50.102;19.958;2023-02-24T10:16:23;97551.40;;;9.70
68510;BMP180;55512;50.102;19.958;2023-02-24T10:19:10;97556.00;;;9.70
68510;BMP180;55512;50.102;19.958;2023-02-24T10:30:14;97541.20;;;9.60
68510;BMP180;55512;50.102;19.958;2023-02-24T10:32:56;97541.80;;;9.70
68510;BMP180;55512;50.102;19.958;2023-02-24T10:35:26;97532.40;;;9.68
68510;BMP180;55512;50.102;19.958;2023-02-24T10:38:00;97526.20;;;9.70
68510;BMP180;55512;50.102;19.958;2023-02-24T10:40:43;97521.40;;;9.78
68510;BMP180;55512;50.102;19.958;2023-02-24T10:43:19;97518.60;;;9.70
68510;BMP180;55512;50.102;19.958;2023-02-24T10:45:56;97503.80;;;9.72
68510;BMP180;55512;50.102;19.958;2023-02-24T10:48:34;97495.80;;;9.80
68510;BMP180;55512;50.102;19.958;2023-02-24T10:51:18;97495.80;;;9.80
68510;BMP180;55512;50.102;19.958;2023-02-24T10:53:48;97492.80;;;9.90
68510;BMP180;55512;50.102;19.958;2023-02-24T10:56:40;97480.80;;;9.90
68510;BMP180;55512;50.102;19.958;2023-02-24T10:59:14;97478.80;;;10.00
68510;BMP180;55512;50.102;19.958;2023-02-24T11:02:17;97474.20;;;10.10
68510;BMP180;55512;50.102;19.958;2023-02-24T11:04:56;97468.80;;;10.10
68510;BMP180;55512;50.102;19.958;2023-02-24T11:07:29;97462.20;;;10.10
68510;BMP180;55512;50.102;19.958;2023-02-24T11:10:13;97459.60;;;10.20
68510;BMP180;55512;50.102;19.958;2023-02-24T11:12:46;97448.60;;;10.20
68510;BMP180;55512;50.102;19.958;2023-02-24T11:15:52;97441.80;;;10.26
68510;BMP180;55512;50.102;19.958;2023-02-24T11:18:37;97440.80;;;10.30
68510;BMP180;55512;50.102;19.958;2023-02-24T11:21:12;97432.20;;;10.40
68510;BMP180;55512;50.102;19.958;2023-02-24T11:23:58;97427.40;;;10.40
68510;BMP180;55512;50.102;19.958;2023-02-24T11:26:31;97424.00;;;10.50
68510;BMP180;55512;50.102;19.958;2023-02-24T11:32:00;97419.80;;;10.72
68510;BMP180;55512;50.102;19.958;2023-02-24T11:37:42;97405.20;;;11.00
68510;BMP180;55512;50.102;19.958;2023-02-24T11:40:23;97399.80;;;11.16
68510;BMP180;55512;50.102;19.958;2023-02-24T11:43:12;97397.60;;;11.20
68510;BMP180;55512;50.102;19.958;2023-02-24T11:46:16;97388.00;;;11.30
68510;BMP180;55512;50.102;19.958;2023-02-24T11:48:55;97382.60;;;11.38
68510;BMP180;55512;50.102;19.958;2023-02-24T11:51:31;97377.40;;;11.40
68510;BMP180;55512;50.102;19.958;2023-02-24T11:54:07;97366.80;;;11.40
68510;BMP180;55512;50.102;19.958;2023-02-24T11:56:42;97365.20;;;11.42
68510;BMP180;55512;50.102;19.958;2023-02-24T11:59:34;97355.60;;;11.50
68510;BMP180;55512;50.102;19.958;2023-02-24T12:02:21;97354.80;;;11.70
68510;BMP180;55512;50.102;19.958;2023-02-24T12:05:13;97351.60;;;11.86
68510;BMP180;55512;50.102;19.958;2023-02-24T12:08:03;97357.00;;;12.00
68510;BMP180;55512;50.102;19.958;2023-02-24T12:10:50;97355.40;;;12.00
68510;BMP180;55512;50.102;19.958;2023-02-24T12:13:37;97350.80;;;11.98
68510;BMP180;55512;50.102;19.958;2023-02-24T12:16:15;97353.40;;;11.90
68510;BMP180;55512;50.102;19.958;2023-02-24T12:18:51;97353.20;;;11.80
68510;BMP180;55512;50.102;19.958;2023-02-24T12:21:30;97353.80;;;11.80
68510;BMP180;55512;50.102;19.958;2023-02-24T12:23:58;97347.80;;;11.80
68510;BMP180;55512;50.102;19.958;2023-02-24T12:35:14;97329.00;;;11.90
68510;BMP180;55512;50.102;19.958;2023-02-24T12:41:45;97330.00;;;11.90
68510;BMP180;55512;50.102;19.958;2023-02-24T12:47:16;97322.20;;;11.80
68510;BMP180;55512;50.102;19.958;2023-02-24T12:50:18;97318.40;;;11.80
68510;BMP180;55512;50.102;19.958;2023-02-24T12:53:07;97310.60;;;11.80
68510;BMP180;55512;50.102;19.958;2023-02-24T12:58:20;97305.20;;;11.80
68510;BMP180;55512;50.102;19.958;2023-02-24T13:06:57;97297.80;;;11.90
68510;BMP180;55512;50.102;19.958;2023-02-24T13:09:53;97299.40;;;11.80
68510;BMP180;55512;50.102;19.958;2023-02-24T13:12:40;97291.80;;;11.80
68510;BMP180;55512;50.102;19.958;2023-02-24T13:15:22;97297.40;;;11.76
68510;BMP180;55512;50.102;19.958;2023-02-24T13:17:50;97291.80;;;11.70
68510;BMP180;55512;50.102;19.958;2023-02-24T13:20:37;97302.60;;;11.60
68510;BMP180;55512;50.102;19.958;2023-02-24T13:23:19;97291.00;;;11.60
68510;BMP180;55512;50.102;19.958;2023-02-24T13:25:54;97285.40;;;11.70
68510;BMP180;55512;50.102;19.958;2023-02-24T13:28:29;97281.20;;;11.72
68510;BMP180;55512;50.102;19.958;2023-02-24T13:31:12;97285.40;;;11.90
68510;BMP180;55512;50.102;19.958;2023-02-24T13:33:42;97279.40;;;12.10
68510;BMP180;55512;50.102;19.958;2023-02-24T13:36:19;97278.00;;;12.30
68510;BMP180;55512;50.102;19.958;2023-02-24T13:39:03;97276.80;;;12.58
68510;BMP180;55512;50.102;19.958;2023-02-24T13:44:18;97269.40;;;12.94
68510;BMP180;55512;50.102;19.958;2023-02-24T13:52:52;97255.80;;;13.22
68510;BMP180;55512;50.102;19.958;2023-02-24T13:56:02;97258.20;;;13.30
68510;BMP180;55512;50.102;19.958;2023-02-24T14:01:50;97257.00;;;13.30
68510;BMP180;55512;50.102;19.958;2023-02-24T14:04:59;97251.40;;;13.16
68510;BMP180;55512;50.102;19.958;2023-02-24T14:07:34;97242.00;;;13.00
68510;BMP180;55512;50.102;19.958;2023-02-24T14:10:16;97239.40;;;12.90
68510;BMP180;55512;50.102;19.958;2023-02-24T14:12:45;97233.80;;;12.80
68510;BMP180;55512;50.102;19.958;2023-02-24T14:15:19;97232.00;;;12.70
68510;BMP180;55512;50.102;19.958;2023-02-24T14:17:59;97237.00;;;12.70
68510;BMP180;55512;50.102;19.958;2023-02-24T14:20:33;97232.60;;;12.70
68510;BMP180;55512;50.102;19.958;2023-02-24T14:22:59;97226.80;;;12.98
68510;BMP180;55512;50.102;19.958;2023-02-24T14:25:32;97220.80;;;13.38
68510;BMP180;55512;50.102;19.958;2023-02-24T14:27:59;97231.00;;;13.40
68510;BMP180;55512;50.102;19.958;2023-02-24T14:30:36;97222.00;;;13.30
68510;BMP180;55512;50.102;19.958;2023-02-24T14:33:05;97231.00;;;13.20
68510;BMP180;55512;50.102;19.958;2023-02-24T14:35:44;97216.00;;;13.04
68510;BMP180;55512;50.102;19.958;2023-02-24T14:38:32;97207.60;;;13.00
68510;BMP180;55512;50.102;19.958;2023-02-24T14:41:00;97193.80;;;12.88
68510;BMP180;55512;50.102;19.958;2023-02-24T14:43:26;97192.60;;;12.80
68510;BMP180;55512;50.102;19.958;2023-02-24T14:45:52;97183.60;;;12.72
68510;BMP180;55512;50.102;19.958;2023-02-24T14:48:24;97182.20;;;12.78
68510;BMP180;55512;50.102;19.958;2023-02-24T14:50:51;97180.40;;;13.26
68510;BMP180;55512;50.102;19.958;2023-02-24T14:53:22;97169.80;;;13.40
68510;BMP180;55512;50.102;19.958;2023-02-24T14:55:52;97173.60;;;13.40
68510;BMP180;55512;50.102;19.958;2023-02-24T14:58:31;97174.20;;;13.20
68510;BMP180;55512;50.102;19.958;2023-02-24T15:01:20;97163.80;;;13.10
68510;BMP180;55512;50.102;19.958;2023-02-24T15:03:56;97163.60;;;12.90
68510;BMP180;55512;50.102;19.958;2023-02-24T15:06:30;97166.80;;;12.74
68510;BMP180;55512;50.102;19.958;2023-02-24T15:11:26;97155.60;;;12.40
68510;BMP180;55512;50.102;19.958;2023-02-24T15:14:00;97154.80;;;12.30
68510;BMP180;55512;50.102;19.958;2023-02-24T15:16:43;97147.80;;;12.20
68510;BMP180;55512;50.102;19.958;2023-02-24T15:19:36;97152.40;;;12.10
68510;BMP180;55512;50.102;19.958;2023-02-24T15:22:17;97148.60;;;12.00
68510;BMP180;55512;50.102;19.958;2023-02-24T15:24:43;97154.40;;;11.90
68510;BMP180;55512;50.102;19.958;2023-02-24T15:29:42;97165.80;;;11.70
68510;BMP180;55512;50.102;19.958;2023-02-24T15:32:16;97167.20;;;11.50
68510;BMP180;55512;50.102;19.958;2023-02-24T15:34:45;97174.00;;;11.38
68510;BMP180;55512;50.102;19.958;2023-02-24T15:37:25;97169.60;;;11.18
68510;BMP180;55512;50.102;19.958;2023-02-24T15:40:04;97157.60;;;10.88
68510;BMP180;55512;50.102;19.958;2023-02-24T15:42:33;97158.60;;;10.68
68510;BMP180;55512;50.102;19.958;2023-02-24T15:47:52;97169.20;;;10.40
68510;BMP180;55512;50.102;19.958;2023-02-24T15:50:19;97167.40;;;10.20
68510;BMP180;55512;50.102;19.958;2023-02-24T15:52:45;97159.60;;;10.00
68510;BMP180;55512;50.102;19.958;2023-02-24T15:55:15;97157.00;;;10.00
68510;BMP180;55512;50.102;19.958;2023-02-24T15:57:41;97153.40;;;9.90
68510;BMP180;55512;50.102;19.958;2023-02-24T16:00:11;97145.40;;;9.90
68510;BMP180;55512;50.102;19.958;2023-02-24T16:02:40;97142.00;;;9.90
68510;BMP180;55512;50.102;19.958;2023-02-24T16:05:08;97131.60;;;9.80
68510;BMP180;55512;50.102;19.958;2023-02-24T16:07:36;97131.40;;;9.80
68510;BMP180;55512;50.102;19.958;2023-02-24T16:10:04;97128.60;;;9.70
68510;BMP180;55512;50.102;19.958;2023-02-24T16:12:44;97118.00;;;9.70
68510;BMP180;55512;50.102;19.958;2023-02-24T16:15:18;97114.20;;;9.60
68510;BMP180;55512;50.102;19.958;2023-02-24T16:17:45;97109.60;;;9.60
68510;BMP180;55512;50.102;19.958;2023-02-24T16:20:16;97106.60;;;9.50
68510;BMP180;55512;50.102;19.958;2023-02-24T16:22:42;97110.40;;;9.50
68510;BMP180;55512;50.102;19.958;2023-02-24T16:25:09;97102.60;;;9.40
68510;BMP180;55512;50.102;19.958;2023-02-24T16:27:36;97107.20;;;9.40
68510;BMP180;55512;50.102;19.958;2023-02-24T16:30:02;97103.60;;;9.38
68510;BMP180;55512;50.102;19.958;2023-02-24T16:32:27;97111.40;;;9.30
68510;BMP180;55512;50.102;19.958;2023-02-24T16:34:54;97106.00;;;9.30